createdAt,value
2023-02-06T00:00:50.000Z,4.55
2023-02-06T00:03:16.608Z,4.74
2023-02-06T00:05:43.279Z,4.40
2023-02-06T00:08:09.803Z,4.49
2023-02-06T00:10:36.326Z,4.64
2023-02-06T00:13:02.827Z,4.73
2023-02-06T00:15:29.361Z,5.16
2023-02-06T00:17:56.240Z,4.90
2023-02-06T00:20:22.752Z,4.33
2023-02-06T00:22:49.239Z,4.69
2023-02-06T00:25:15.802Z,4.79
2023-02-06T00:27:42.356Z,4.78
2023-02-06T00:30:09.141Z,4.95
2023-02-06T00:32:35.801Z,4.92
2023-02-06T00:35:02.326Z,5.06
2023-02-06T00:37:28.802Z,5.07
2023-02-06T00:39:55.298Z,4.85
2023-02-06T00:42:21.805Z,5.02
2023-02-06T00:44:48.326Z,5.33
2023-02-06T00:47:15.145Z,5.38
2023-02-06T00:49:41.918Z,5.43
2023-02-06T00:52:08.511Z,5.36
2023-02-06T00:54:35.043Z,5.41
2023-02-06T00:57:01.548Z,5.25
2023-02-06T00:59:28.074Z,5.38
2023-02-06T01:01:55.239Z,5.44
2023-02-06T01:04:21.707Z,5.18
2023-02-06T01:06:48.257Z,5.09
2023-02-06T01:09:14.842Z,5.42
2023-02-06T01:11:41.333Z,5.28
2023-02-06T01:14:07.859Z,5.47
2023-02-06T01:16:34.354Z,5.42
2023-02-06T01:19:01.185Z,5.46
2023-02-06T01:21:27.746Z,5.19
2023-02-06T01:23:55.019Z,5.07
2023-02-06T01:26:24.116Z,5.07
2023-02-06T01:28:50.967Z,4.82
2023-02-06T01:31:20.900Z,5.06
2023-02-06T01:33:48.821Z,4.91
2023-02-06T01:36:16.469Z,4.85
2023-02-06T01:38:43.355Z,5.16
2023-02-06T01:41:10.724Z,5.21
2023-02-06T01:43:40.381Z,5.19
2023-02-06T01:46:07.340Z,4.84
2023-02-06T01:48:50.083Z,4.81
2023-02-06T01:51:22.932Z,4.74
2023-02-06T01:53:55.726Z,4.82
2023-02-06T01:56:23.606Z,4.94
2023-02-06T01:58:53.093Z,4.63
2023-02-06T02:01:20.080Z,4.66
2023-02-06T02:03:48.921Z,4.54
2023-02-06T02:06:18.891Z,4.35
2023-02-06T02:08:47.273Z,4.32
2023-02-06T02:11:16.328Z,4.66
2023-02-06T02:13:43.053Z,4.96
2023-02-06T02:16:20.521Z,5.23
2023-02-06T02:18:59.560Z,5.06
2023-02-06T02:21:28.942Z,4.95
2023-02-06T02:24:05.878Z,4.53
2023-02-06T02:27:04.285Z,4.69
2023-02-06T02:29:37.135Z,4.66
2023-02-06T02:32:19.551Z,4.80
2023-02-06T02:35:00.515Z,4.71
2023-02-06T02:37:32.433Z,4.83
2023-02-06T02:39:58.853Z,5.07
2023-02-06T02:42:35.333Z,5.19
2023-02-06T02:45:14.057Z,4.89
2023-02-06T02:47:56.056Z,4.91
2023-02-06T02:50:23.052Z,4.91
2023-02-06T02:52:49.770Z,5.03
2023-02-06T02:55:22.331Z,4.86
2023-02-06T02:57:56.311Z,4.87
2023-02-06T03:00:24.091Z,4.83
2023-02-06T03:02:51.726Z,4.88
2023-02-06T03:05:20.727Z,4.76
2023-02-06T03:08:06.404Z,4.55
2023-02-06T03:10:41.139Z,4.66
2023-02-06T03:13:21.520Z,4.83
2023-02-06T03:15:59.153Z,4.47
2023-02-06T03:18:30.964Z,4.42
2023-02-06T03:20:59.033Z,4.66
2023-02-06T03:23:31.755Z,4.50
2023-02-06T03:26:00.719Z,4.68
2023-02-06T03:28:32.200Z,4.70
2023-02-06T03:31:00.094Z,4.61
2023-02-06T03:33:31.779Z,4.69
2023-02-06T03:35:58.945Z,4.60
2023-02-06T03:38:25.852Z,4.60
2023-02-06T03:40:53.410Z,4.58
2023-02-06T03:43:20.579Z,4.48
2023-02-06T03:45:50.559Z,4.52
2023-02-06T03:48:21.845Z,4.51
2023-02-06T03:50:50.196Z,4.47
2023-02-06T03:53:18.127Z,4.30
2023-02-06T03:55:46.077Z,4.05
2023-02-06T03:58:14.049Z,4.27
2023-02-06T04:00:42.293Z,4.15
2023-02-06T04:03:10.276Z,4.07
2023-02-06T04:05:37.737Z,4.42
2023-02-06T04:08:04.672Z,4.45
2023-02-06T04:10:31.357Z,4.40
2023-02-06T04:12:57.895Z,4.48
2023-02-06T04:15:24.480Z,4.47
2023-02-06T04:17:59.857Z,4.06
2023-02-06T04:20:27.353Z,4.41
2023-02-06T04:22:53.850Z,4.49
2023-02-06T04:25:20.364Z,4.72
2023-02-06T04:27:47.421Z,4.75
2023-02-06T04:30:14.186Z,4.18
2023-02-06T04:32:40.739Z,4.44
2023-02-06T04:35:07.558Z,4.48
2023-02-06T04:37:34.084Z,4.47
2023-02-06T04:40:00.584Z,4.24
2023-02-06T04:42:27.213Z,4.58
2023-02-06T04:44:53.724Z,4.64
2023-02-06T04:47:20.217Z,4.44
2023-02-06T04:49:46.707Z,4.62
2023-02-06T04:52:13.335Z,4.59
2023-02-06T04:54:39.848Z,4.35
2023-02-06T04:57:06.426Z,4.73
2023-02-06T04:59:32.920Z,4.68
2023-02-06T05:01:59.393Z,4.71
2023-02-06T05:04:25.909Z,4.50
2023-02-06T05:06:52.412Z,4.64
2023-02-06T05:09:18.946Z,4.76
2023-02-06T05:11:47.043Z,4.54
2023-02-06T05:14:13.548Z,4.18
2023-02-06T05:16:40.067Z,4.33
2023-02-06T05:19:06.531Z,4.69
2023-02-06T05:21:33.877Z,4.46
2023-02-06T05:24:00.409Z,4.20
2023-02-06T05:26:26.989Z,4.32
2023-02-06T05:28:53.460Z,4.31
2023-02-06T05:31:20.262Z,3.90
2023-02-06T05:33:51.146Z,4.10
2023-02-06T05:36:19.069Z,4.13
2023-02-06T05:38:45.624Z,4.17
2023-02-06T05:41:12.181Z,4.31
2023-02-06T05:43:38.774Z,4.43
2023-02-06T05:46:05.332Z,4.59
2023-02-06T05:48:34.396Z,4.40
2023-02-06T05:51:01.411Z,4.14
2023-02-06T05:53:28.089Z,3.90
2023-02-06T05:55:54.597Z,4.19
2023-02-06T05:58:21.216Z,4.42
2023-02-06T06:00:48.409Z,4.31
2023-02-06T06:03:14.905Z,4.64
2023-02-06T06:05:41.713Z,4.29
2023-02-06T06:08:08.295Z,4.32
2023-02-06T06:10:35.392Z,3.92
2023-02-06T06:13:01.990Z,3.77
2023-02-06T06:15:28.545Z,4.02
2023-02-06T06:17:55.351Z,4.34
2023-02-06T06:20:22.271Z,4.49
2023-02-06T06:22:48.778Z,4.11
2023-02-06T06:25:15.310Z,4.55
2023-02-06T06:27:42.040Z,4.57
2023-02-06T06:30:09.569Z,4.47
2023-02-06T06:32:36.672Z,4.56
2023-02-06T06:35:03.598Z,4.12
2023-02-06T06:37:40.476Z,4.11
2023-02-06T06:40:08.039Z,4.21
2023-02-06T06:42:34.582Z,4.27
2023-02-06T06:45:01.129Z,4.29
2023-02-06T06:47:27.941Z,4.06
2023-02-06T06:49:54.497Z,4.14
2023-02-06T06:52:25.277Z,4.15
2023-02-06T06:54:53.125Z,3.92
2023-02-06T06:57:20.679Z,3.97
2023-02-06T06:59:53.564Z,4.28
2023-02-06T07:02:20.520Z,4.00
2023-02-06T07:04:47.477Z,3.91
2023-02-06T07:07:14.028Z,4.27
2023-02-06T07:09:40.534Z,4.51
2023-02-06T07:12:07.174Z,4.38
2023-02-06T07:14:33.734Z,4.55
2023-02-06T07:17:01.606Z,4.47
2023-02-06T07:19:28.116Z,4.43
2023-02-06T07:21:54.663Z,4.42
2023-02-06T07:24:21.193Z,4.17
2023-02-06T07:26:48.241Z,4.15
2023-02-06T07:29:14.752Z,4.16
2023-02-06T07:31:41.432Z,4.23
2023-02-06T07:34:07.992Z,4.42
2023-02-06T07:36:34.680Z,4.66
2023-02-06T07:39:03.014Z,4.85
2023-02-06T07:41:29.532Z,4.80
2023-02-06T07:43:56.842Z,4.61
2023-02-06T07:46:23.618Z,4.36
2023-02-06T07:48:50.565Z,4.44
2023-02-06T07:51:17.159Z,4.38
2023-02-06T07:53:43.697Z,4.60
2023-02-06T07:56:19.048Z,4.79
2023-02-06T07:58:47.241Z,5.01
2023-02-06T08:01:13.809Z,5.12
2023-02-06T08:03:40.346Z,5.12
2023-02-06T08:06:11.571Z,5.14
2023-02-06T08:08:41.550Z,5.29
2023-02-06T08:11:10.833Z,5.22
2023-02-06T08:13:39.833Z,4.83
2023-02-06T08:16:08.229Z,4.30
2023-02-06T08:18:34.858Z,4.48
2023-02-06T08:21:03.692Z,4.57
2023-02-06T08:23:30.365Z,4.61
2023-02-06T08:26:05.665Z,4.57
2023-02-06T08:28:32.347Z,4.81
2023-02-06T08:30:59.045Z,4.17
2023-02-06T08:33:25.772Z,4.25
2023-02-06T08:35:52.478Z,4.15
2023-02-06T08:38:18.957Z,4.39
2023-02-06T08:40:45.547Z,4.22
2023-02-06T08:43:12.093Z,4.79
2023-02-06T08:45:38.645Z,4.87
2023-02-06T08:48:05.233Z,4.61
2023-02-06T08:50:31.793Z,4.49
2023-02-06T08:52:59.123Z,4.60
2023-02-06T08:55:31.675Z,4.03
2023-02-06T08:57:58.243Z,4.25
2023-02-06T09:00:24.806Z,4.42
2023-02-06T09:02:55.056Z,4.66
2023-02-06T09:05:22.423Z,4.61
2023-02-06T09:07:49.730Z,4.48
2023-02-06T09:10:27.118Z,4.46
2023-02-06T09:12:57.639Z,4.90
2023-02-06T09:15:24.322Z,5.12
2023-02-06T09:17:50.923Z,5.05
2023-02-06T09:20:17.987Z,5.02
2023-02-06T09:22:44.642Z,5.23
2023-02-06T09:25:11.337Z,5.43
2023-02-06T09:27:38.034Z,5.27
2023-02-06T09:30:05.966Z,5.58
2023-02-06T09:32:32.478Z,5.65
2023-02-06T09:34:59.034Z,5.71
2023-02-06T09:37:25.514Z,5.76
2023-02-06T09:39:52.069Z,5.90
2023-02-06T09:42:27.715Z,5.77
2023-02-06T09:45:03.121Z,5.60
2023-02-06T09:47:40.156Z,5.76
2023-02-06T09:50:13.650Z,6.09
2023-02-06T09:53:17.128Z,5.79
2023-02-06T09:55:54.724Z,5.95
2023-02-06T09:58:31.181Z,5.74
2023-02-06T10:01:03.781Z,5.85
2023-02-06T10:04:10.137Z,5.81
2023-02-06T10:06:46.168Z,5.77
2023-02-06T10:09:22.074Z,5.92
2023-02-06T10:12:06.185Z,6.03
2023-02-06T10:14:59.358Z,6.03
2023-02-06T10:17:39.941Z,6.03
2023-02-06T10:20:31.924Z,6.10
2023-02-06T10:23:16.069Z,6.28
2023-02-06T10:25:49.757Z,6.35
2023-02-06T10:28:27.228Z,6.33
2023-02-06T10:31:09.600Z,6.01
2023-02-06T10:33:45.531Z,6.24
2023-02-06T10:36:26.794Z,6.06
2023-02-06T10:39:20.855Z,5.95
2023-02-06T10:41:56.426Z,6.51
2023-02-06T10:44:51.141Z,6.63
2023-02-06T10:47:41.267Z,6.67
2023-02-06T10:50:34.456Z,6.69
2023-02-06T10:53:05.565Z,6.67
2023-02-06T10:55:41.620Z,6.51
2023-02-06T10:58:42.993Z,6.49
2023-02-06T11:01:25.043Z,6.38
2023-02-06T11:04:17.634Z,6.43
2023-02-06T11:06:46.789Z,6.55
2023-02-06T11:09:14.516Z,6.48
2023-02-06T11:11:46.042Z,6.61
2023-02-06T11:14:18.005Z,6.74
2023-02-06T11:16:44.752Z,6.23
2023-02-06T11:19:17.481Z,6.46
2023-02-06T11:21:43.974Z,6.26
2023-02-06T11:24:16.142Z,6.51
2023-02-06T11:26:47.157Z,6.64
2023-02-06T11:29:39.301Z,6.62
2023-02-06T11:32:07.609Z,6.19
2023-02-06T11:34:36.775Z,6.30
2023-02-06T11:37:36.837Z,5.87
2023-02-06T11:40:18.952Z,5.45
2023-02-06T11:42:52.641Z,5.59
2023-02-06T11:45:33.082Z,5.40
2023-02-06T11:48:02.229Z,4.93
2023-02-06T11:50:37.230Z,5.07
2023-02-06T11:53:18.208Z,5.12
2023-02-06T11:55:46.740Z,5.46
2023-02-06T11:58:13.144Z,5.37
2023-02-06T12:00:51.945Z,4.80
2023-02-06T12:03:35.451Z,4.95
2023-02-06T12:06:20.243Z,5.38
2023-02-06T12:08:52.709Z,5.28
2023-02-06T12:11:33.296Z,4.92
2023-02-06T12:14:07.239Z,5.25
2023-02-06T12:16:36.689Z,5.04
2023-02-06T12:19:10.711Z,5.03
2023-02-06T12:21:57.279Z,5.16
2023-02-06T12:24:32.279Z,5.25
2023-02-06T12:27:05.741Z,4.82
2023-02-06T12:29:38.889Z,5.25
2023-02-06T12:32:18.299Z,4.86
2023-02-06T12:34:56.401Z,5.45
2023-02-06T12:37:40.225Z,5.69
2023-02-06T12:40:27.027Z,5.69
2023-02-06T12:43:08.170Z,5.43
2023-02-06T12:45:40.564Z,5.38
2023-02-06T12:48:21.480Z,5.82
2023-02-06T12:51:09.984Z,5.98
2023-02-06T12:53:48.457Z,6.07
2023-02-06T12:56:23.355Z,5.62
2023-02-06T12:58:59.604Z,5.96
2023-02-06T13:02:00.571Z,5.66
2023-02-06T13:04:33.128Z,5.33
2023-02-06T13:07:06.408Z,5.10
2023-02-06T13:10:04.075Z,5.52
2023-02-06T13:12:31.542Z,5.12
2023-02-06T13:15:03.942Z,5.53
2023-02-06T13:17:44.847Z,5.96
2023-02-06T13:20:16.413Z,5.89
2023-02-06T13:23:15.974Z,5.98
2023-02-06T13:25:46.461Z,6.45
2023-02-06T13:28:22.120Z,6.43
2023-02-06T13:31:07.472Z,6.73
2023-02-06T13:33:44.079Z,6.70
2023-02-06T13:36:18.340Z,6.96
2023-02-06T13:38:44.984Z,6.52
2023-02-06T13:41:14.390Z,6.43
2023-02-06T13:43:51.660Z,6.36
2023-02-06T13:46:20.772Z,6.54
2023-02-06T13:48:53.149Z,6.92
2023-02-06T13:51:44.343Z,6.97
2023-02-06T13:54:26.748Z,6.25
2023-02-06T13:57:26.739Z,6.58
2023-02-06T13:59:53.375Z,6.27
2023-02-06T14:02:28.825Z,6.51
2023-02-06T14:04:58.588Z,6.82
2023-02-06T14:07:50.381Z,6.61
2023-02-06T14:10:48.083Z,6.79
2023-02-06T14:13:48.997Z,6.70
2023-02-06T14:16:28.096Z,6.89
2023-02-06T14:19:09.884Z,6.72
2023-02-06T14:21:40.735Z,6.54
2023-02-06T14:24:31.757Z,6.96
2023-02-06T14:27:20.075Z,6.72
2023-02-06T14:30:22.423Z,6.68
2023-02-06T14:32:54.267Z,6.47
2023-02-06T14:35:40.917Z,6.03
2023-02-06T14:38:45.430Z,5.78
2023-02-06T14:41:12.116Z,6.02
2023-02-06T14:43:41.154Z,6.10
2023-02-06T14:46:11.934Z,5.34
2023-02-06T14:48:44.647Z,5.71
2023-02-06T14:51:24.612Z,5.84
2023-02-06T14:53:57.617Z,6.09
2023-02-06T14:56:36.638Z,5.94
2023-02-06T14:59:12.364Z,6.15
2023-02-06T15:01:39.609Z,5.88
2023-02-06T15:04:12.048Z,5.72
2023-02-06T15:06:42.035Z,5.98
2023-02-06T15:09:08.563Z,6.15
2023-02-06T15:11:35.205Z,5.54
2023-02-06T15:14:04.670Z,5.90
2023-02-06T15:16:45.781Z,5.99
2023-02-06T15:19:13.305Z,6.02
2023-02-06T15:21:41.103Z,6.19
2023-02-06T15:24:23.925Z,6.07
2023-02-06T15:27:01.105Z,6.07
2023-02-06T15:29:28.011Z,5.56
2023-02-06T15:32:00.685Z,5.65
2023-02-06T15:34:27.845Z,5.87
2023-02-06T15:36:54.757Z,5.84
2023-02-06T15:39:21.692Z,5.69
2023-02-06T15:41:51.723Z,5.86
2023-02-06T15:44:21.491Z,5.73
2023-02-06T15:46:49.441Z,5.63
2023-02-06T15:49:42.351Z,5.80
2023-02-06T15:52:10.244Z,5.81
2023-02-06T15:54:40.254Z,5.54
2023-02-06T15:57:28.762Z,5.40
2023-02-06T15:59:59.585Z,5.53
2023-02-06T16:02:32.690Z,5.67
2023-02-06T16:04:59.771Z,5.63
2023-02-06T16:07:28.072Z,5.73
2023-02-06T16:09:54.623Z,5.63
2023-02-06T16:12:21.989Z,5.37
2023-02-06T16:15:00.029Z,5.68
2023-02-06T16:17:41.071Z,5.52
2023-02-06T16:20:27.488Z,5.64
2023-02-06T16:22:57.723Z,5.73
2023-02-06T16:25:30.239Z,5.76
2023-02-06T16:27:57.173Z,5.74
2023-02-06T16:30:30.446Z,5.69
2023-02-06T16:32:58.439Z,5.75
2023-02-06T16:35:25.056Z,5.70
2023-02-06T16:37:53.345Z,5.71
2023-02-06T16:40:20.183Z,5.74
2023-02-06T16:42:47.674Z,5.67
2023-02-06T16:45:26.276Z,5.60
2023-02-06T16:47:54.936Z,5.54
2023-02-06T16:50:21.746Z,5.58
2023-02-06T16:52:54.080Z,5.53
2023-02-06T16:55:24.959Z,5.32
2023-02-06T16:57:58.791Z,5.18
2023-02-06T17:00:31.415Z,5.32
2023-02-06T17:03:06.570Z,5.30
2023-02-06T17:05:37.141Z,5.40
2023-02-06T17:08:13.179Z,5.32
2023-02-06T17:10:39.683Z,5.34
2023-02-06T17:13:06.253Z,5.46
2023-02-06T17:15:32.877Z,5.46
2023-02-06T17:17:59.504Z,5.31
2023-02-06T17:20:30.963Z,5.33
2023-02-06T17:22:57.480Z,4.99
2023-02-06T17:25:24.596Z,5.10
2023-02-06T17:27:52.238Z,5.13
2023-02-06T17:30:21.592Z,5.17
2023-02-06T17:32:48.578Z,5.14
2023-02-06T17:35:15.537Z,5.15
2023-02-06T17:37:42.618Z,4.93
2023-02-06T17:40:12.176Z,4.98
2023-02-06T17:42:39.027Z,4.92
2023-02-06T17:45:05.960Z,4.97
2023-02-06T17:47:32.618Z,4.90
2023-02-06T17:49:59.288Z,4.90
2023-02-06T17:52:26.064Z,5.01
2023-02-06T17:54:52.564Z,5.01
2023-02-06T17:57:19.307Z,5.02
2023-02-06T17:59:45.816Z,5.00
2023-02-06T18:02:14.149Z,4.90
2023-02-06T18:04:40.610Z,4.78
2023-02-06T18:07:07.933Z,4.85
2023-02-06T18:09:34.756Z,4.70
2023-02-06T18:12:01.275Z,4.74
2023-02-06T18:14:27.796Z,4.52
2023-02-06T18:16:54.314Z,4.64
2023-02-06T18:19:24.736Z,4.59
2023-02-06T18:21:51.452Z,4.62
2023-02-06T18:24:17.951Z,4.81
2023-02-06T18:26:44.720Z,4.68
2023-02-06T18:29:11.233Z,4.87
2023-02-06T18:31:37.865Z,4.76
2023-02-06T18:34:07.908Z,4.71
2023-02-06T18:36:35.938Z,4.84
2023-02-06T18:39:02.558Z,4.71
2023-02-06T18:41:48.130Z,4.77
2023-02-06T18:44:14.718Z,4.94
2023-02-06T18:46:41.305Z,4.90
2023-02-06T18:49:07.887Z,4.99
2023-02-06T18:51:34.670Z,5.04
2023-02-06T18:54:01.314Z,5.05
2023-02-06T18:56:27.934Z,4.99
2023-02-06T18:58:55.063Z,4.76
2023-02-06T19:01:23.651Z,4.51
2023-02-06T19:03:51.022Z,4.40
2023-02-06T19:06:32.192Z,4.43
2023-02-06T19:08:59.170Z,4.43
2023-02-06T19:11:26.518Z,4.82
2023-02-06T19:13:53.526Z,4.52
2023-02-06T19:16:20.666Z,4.01
2023-02-06T19:18:48.938Z,4.10
2023-02-06T19:21:18.315Z,4.11
2023-02-06T19:23:46.309Z,4.00
2023-02-06T19:26:15.124Z,3.92
2023-02-06T19:28:42.745Z,3.92
2023-02-06T19:31:10.938Z,3.94
2023-02-06T19:33:38.796Z,3.94
2023-02-06T19:36:15.786Z,4.17
2023-02-06T19:38:42.883Z,4.13
2023-02-06T19:41:14.570Z,4.20
2023-02-06T19:43:42.521Z,3.81
2023-02-06T19:46:13.827Z,3.66
2023-02-06T19:48:45.578Z,4.17
2023-02-06T19:51:21.405Z,4.01
2023-02-06T19:53:49.406Z,3.72
2023-02-06T19:56:22.497Z,3.75
2023-02-06T19:58:56.532Z,3.67
2023-02-06T20:01:23.927Z,3.66
2023-02-06T20:03:50.686Z,3.36
2023-02-06T20:06:17.832Z,3.62
2023-02-06T20:08:45.999Z,3.55
2023-02-06T20:11:15.039Z,3.29
2023-02-06T20:13:41.810Z,3.05
2023-02-06T20:16:20.033Z,3.60
2023-02-06T20:18:46.596Z,3.59
2023-02-06T20:21:28.259Z,3.60
2023-02-06T20:23:55.792Z,3.31
2023-02-06T20:26:24.140Z,3.71
2023-02-06T20:28:50.782Z,3.67
2023-02-06T20:31:17.431Z,3.37
2023-02-06T20:33:44.326Z,3.60
2023-02-06T20:36:14.057Z,3.60
2023-02-06T20:38:41.171Z,3.30
2023-02-06T20:41:08.262Z,3.64
2023-02-06T20:43:36.241Z,3.69
2023-02-06T20:46:05.979Z,3.70
2023-02-06T20:48:33.850Z,3.42
2023-02-06T20:51:01.999Z,3.49
2023-02-06T20:53:29.474Z,3.13
2023-02-06T20:55:56.457Z,3.43
2023-02-06T20:58:23.227Z,3.59
2023-02-06T21:00:50.255Z,3.58
2023-02-06T21:03:16.903Z,3.27
2023-02-06T21:05:43.771Z,3.56
2023-02-06T21:08:10.605Z,3.62
2023-02-06T21:10:37.380Z,3.09
2023-02-06T21:13:04.018Z,3.03
2023-02-06T21:15:30.559Z,3.24
2023-02-06T21:17:58.237Z,3.39
2023-02-06T21:20:24.718Z,3.41
2023-02-06T21:22:52.829Z,3.12
2023-02-06T21:25:20.458Z,3.41
2023-02-06T21:27:47.068Z,3.53
2023-02-06T21:30:13.757Z,3.43
2023-02-06T21:32:40.319Z,3.42
2023-02-06T21:35:09.191Z,3.39
2023-02-06T21:37:35.940Z,3.27
2023-02-06T21:40:03.439Z,3.45
2023-02-06T21:42:29.962Z,3.72
2023-02-06T21:44:56.453Z,3.64
2023-02-06T21:47:22.962Z,3.58
2023-02-06T21:49:49.435Z,3.80
2023-02-06T21:52:15.949Z,3.20
2023-02-06T21:54:42.453Z,3.68
2023-02-06T21:57:08.959Z,3.61
2023-02-06T21:59:37.810Z,3.55
2023-02-06T22:02:04.821Z,3.57
2023-02-06T22:04:31.387Z,3.77
2023-02-06T22:06:57.942Z,3.60
2023-02-06T22:09:24.499Z,3.64
2023-02-06T22:11:51.030Z,3.36
2023-02-06T22:14:18.194Z,3.46
2023-02-06T22:16:46.832Z,3.84
2023-02-06T22:19:14.649Z,3.73
2023-02-06T22:21:41.849Z,3.89
2023-02-06T22:24:10.223Z,4.05
2023-02-06T22:26:38.551Z,3.98
2023-02-06T22:29:08.925Z,3.96
2023-02-06T22:31:36.563Z,3.90
2023-02-06T22:34:03.297Z,3.94
2023-02-06T22:36:32.270Z,3.77
2023-02-06T22:39:10.182Z,4.06
2023-02-06T22:41:39.298Z,3.83
2023-02-06T22:44:05.813Z,3.71
2023-02-06T22:46:37.818Z,3.66
2023-02-06T22:49:06.365Z,3.44
2023-02-06T22:51:33.155Z,3.50
2023-02-06T22:54:00.522Z,3.51
2023-02-06T22:56:36.007Z,3.20
2023-02-06T22:59:05.475Z,3.32
2023-02-06T23:01:53.372Z,3.34
2023-02-06T23:04:22.311Z,3.54
2023-02-06T23:06:49.577Z,3.44
2023-02-06T23:09:18.691Z,3.39
2023-02-06T23:11:45.517Z,3.50
2023-02-06T23:14:13.486Z,3.63
2023-02-06T23:16:40.252Z,3.44
2023-02-06T23:19:07.168Z,3.42
2023-02-06T23:21:36.612Z,3.27
2023-02-06T23:24:04.933Z,3.32
2023-02-06T23:26:31.970Z,3.13
2023-02-06T23:29:00.257Z,2.66
2023-02-06T23:31:27.582Z,2.73
2023-02-06T23:33:54.521Z,2.75
2023-02-06T23:36:22.694Z,2.77
2023-02-06T23:38:49.503Z,2.87
2023-02-06T23:41:27.172Z,2.61
2023-02-06T23:43:57.977Z,2.57
2023-02-06T23:46:25.633Z,2.76
2023-02-06T23:48:52.864Z,2.84
2023-02-06T23:51:20.555Z,2.55
2023-02-06T23:53:48.062Z,2.43
2023-02-06T23:56:17.333Z,2.37
2023-02-06T23:58:44.282Z,2.70
